PWSweather.com
Personal Weather Stations
Station Observations
KMIEASTT1
Tawas Bay, East Tawas, MI 48730

Tawas BayEast Tawas, MI 48730

Lat: 44.28, Lon: -83.48

Elevation: 600

Station Type: Davis VantagePro

http://www.tawasbayweather.com

High Low Average
Temperature 55.9°F13.3°C 49.8°F9.9°C 53.6°F12.0°C
Dew Point 51.3°F10.7°C 44.5°F6.9°C 48.5°F9.2°C
Winds 10.0 mph 16.1 kmh Calm Calm 2.0 mph E3.2 kmh E
Wind Gusts 15.0 mph24.1 kmh -- 7.0 mph11.3 kmh
Humidity 91% 76% 83%
Pressure 30.30 in1026.1 mb 30.18 in1022.0 mb -
Precipitation 0.00 in0.0 mm - -
Hour Temp Dew Point Humidity Winds Wind Gusts Pressure Precip Precip Rate Daily Precip Total
12:00 AM 49.8°F9.9°C 44.5°F6.9°C 82% Calm Calm 1.0 mph1.6 kmh 30.22 in1023.4 mb 0.00 in0.0 mm 0.00 in0.0 mm 0.00 in0.0 mm
12:15 AM 49.9°F9.9°C 44.6°F7.0°C 82% Calm Calm 3.0 mph4.8 kmh 30.22 in1023.4 mb 0.00 in0.0 mm 0.00 in0.0 mm 0.00 in0.0 mm
12:30 AM 50.0°F10.0°C 45.1°F7.3°C 83% Calm Calm 1.0 mph1.6 kmh 30.23 in1023.7 mb 0.00 in0.0 mm 0.00 in0.0 mm 0.00 in0.0 mm
12:45 AM 50.1°F10.1°C 45.5°F7.5°C 84% Calm Calm 4.0 mph6.4 kmh 30.23 in1023.7 mb 0.00 in0.0 mm 0.00 in0.0 mm 0.00 in0.0 mm
01:00 AM 50.4°F10.2°C 45.8°F7.7°C 84% Calm Calm 3.0 mph4.8 kmh 30.22 in1023.4 mb 0.00 in0.0 mm 0.00 in0.0 mm 0.00 in0.0 mm
01:15 AM 50.6°F10.3°C 46.0°F7.8°C 84% 1.0 mph N1.6 kmh N 3.0 mph4.8 kmh 30.23 in1023.7 mb 0.00 in0.0 mm 0.00 in0.0 mm 0.00 in0.0 mm
01:30 AM 50.8°F10.4°C 46.2°F7.9°C 84% Calm Calm 3.0 mph4.8 kmh 30.23 in1023.7 mb 0.00 in0.0 mm 0.00 in0.0 mm 0.00 in0.0 mm
01:45 AM 50.9°F10.5°C 46.6°F8.1°C 85% Calm Calm 2.0 mph3.2 kmh 30.22 in1023.4 mb 0.00 in0.0 mm 0.00 in0.0 mm 0.00 in0.0 mm
02:00 AM 50.9°F10.5°C 46.6°F8.1°C 85% Calm Calm 2.0 mph3.2 kmh 30.22 in1023.4 mb 0.00 in0.0 mm 0.00 in0.0 mm 0.00 in0.0 mm
02:15 AM 51.0°F10.6°C 47.0°F8.3°C 86% Calm Calm -- 30.21 in1023.0 mb 0.00 in0.0 mm 0.00 in0.0 mm 0.00 in0.0 mm
02:30 AM 50.9°F10.5°C 46.9°F8.3°C 86% Calm Calm 1.0 mph1.6 kmh 30.21 in1023.0 mb 0.00 in0.0 mm 0.00 in0.0 mm 0.00 in0.0 mm
02:45 AM 50.9°F10.5°C 47.2°F8.4°C 87% Calm Calm 2.0 mph3.2 kmh 30.19 in1022.4 mb 0.00 in0.0 mm 0.00 in0.0 mm 0.00 in0.0 mm
03:00 AM 51.0°F10.6°C 47.3°F8.5°C 87% Calm Calm 1.0 mph1.6 kmh 30.18 in1022.0 mb 0.00 in0.0 mm 0.00 in0.0 mm 0.00 in0.0 mm
03:15 AM 51.2°F10.7°C 47.5°F8.6°C 87% Calm Calm -- 30.18 in1022.0 mb 0.00 in0.0 mm 0.00 in0.0 mm 0.00 in0.0 mm
03:30 AM 51.6°F10.9°C 48.2°F9.0°C 88% Calm Calm -- 30.19 in1022.4 mb 0.00 in0.0 mm 0.00 in0.0 mm 0.00 in0.0 mm
03:45 AM 52.8°F11.6°C 50.3°F10.2°C 91% 2.0 mph ENE3.2 kmh ENE 9.0 mph14.5 kmh 30.18 in1022.0 mb 0.00 in0.0 mm 0.00 in0.0 mm 0.00 in0.0 mm
04:00 AM 54.6°F12.6°C 50.8°F10.4°C 87% 2.0 mph ENE3.2 kmh ENE 10.0 mph16.1 kmh 30.19 in1022.4 mb 0.00 in0.0 mm 0.00 in0.0 mm 0.00 in0.0 mm
04:15 AM 55.1°F12.8°C 51.0°F10.6°C 86% 1.0 mph E1.6 kmh E 7.0 mph11.3 kmh 30.20 in1022.7 mb 0.00 in0.0 mm 0.00 in0.0 mm 0.00 in0.0 mm
04:30 AM 55.1°F12.8°C 51.3°F10.7°C 87% 1.0 mph E1.6 kmh E 5.0 mph8.0 kmh 30.20 in1022.7 mb 0.01 in0.3 mm 0.04 in1.0 mm 0.01 in0.3 mm
04:45 AM 55.4°F13.0°C 51.3°F10.7°C 86% 2.0 mph E3.2 kmh E 8.0 mph12.9 kmh 30.19 in1022.4 mb 0.01 in0.3 mm 0.00 in0.0 mm 0.01 in0.3 mm
05:00 AM 55.1°F12.8°C 51.3°F10.7°C 87% 3.0 mph E4.8 kmh E 7.0 mph11.3 kmh 30.19 in1022.4 mb 0.02 in0.5 mm 0.01 in0.3 mm 0.02 in0.5 mm
05:15 AM 54.8°F12.7°C 51.0°F10.6°C 87% 2.0 mph ENE3.2 kmh ENE 9.0 mph14.5 kmh 30.19 in1022.4 mb 0.02 in0.5 mm 0.00 in0.0 mm 0.02 in0.5 mm
05:30 AM 54.6°F12.6°C 51.1°F10.6°C 88% 2.0 mph ENE3.2 kmh ENE 10.0 mph16.1 kmh 30.19 in1022.4 mb 0.03 in0.8 mm 0.04 in1.0 mm 0.03 in0.8 mm
05:45 AM 54.4°F12.4°C 50.9°F10.5°C 88% Calm Calm 7.0 mph11.3 kmh 30.19 in1022.4 mb 0.03 in0.8 mm 0.00 in0.0 mm 0.03 in0.8 mm
06:00 AM 54.2°F12.3°C 51.3°F10.7°C 90% 3.0 mph ENE4.8 kmh ENE 7.0 mph11.3 kmh 30.19 in1022.4 mb 0.03 in0.8 mm 0.00 in0.0 mm 0.03 in0.8 mm
06:15 AM 54.1°F12.3°C 51.2°F10.7°C 90% 3.0 mph NE4.8 kmh NE 9.0 mph14.5 kmh 30.20 in1022.7 mb 0.04 in1.0 mm 0.04 in1.0 mm 0.04 in1.0 mm
06:30 AM 53.8°F12.1°C 50.6°F10.3°C 89% 5.0 mph ENE8.0 kmh ENE 12.0 mph19.3 kmh 30.19 in1022.4 mb 0.04 in1.0 mm 0.00 in0.0 mm 0.04 in1.0 mm
06:45 AM 53.9°F12.2°C 50.7°F10.4°C 89% 2.0 mph NE3.2 kmh NE 5.0 mph8.0 kmh 30.20 in1022.7 mb 0.04 in1.0 mm 0.00 in0.0 mm 0.04 in1.0 mm
07:00 AM 53.8°F12.1°C 50.6°F10.3°C 89% 3.0 mph NE4.8 kmh NE 10.0 mph16.1 kmh 30.21 in1023.0 mb 0.04 in1.0 mm 0.00 in0.0 mm 0.04 in1.0 mm
07:15 AM 53.5°F11.9°C 50.6°F10.3°C 90% 1.0 mph NE1.6 kmh NE 11.0 mph17.7 kmh 30.21 in1023.0 mb 0.06 in1.5 mm 0.08 in2.0 mm 0.06 in1.5 mm
07:30 AM 53.1°F11.7°C 50.6°F10.3°C 91% 1.0 mph E1.6 kmh E 8.0 mph12.9 kmh 30.21 in1023.0 mb 0.09 in2.3 mm 0.12 in3.0 mm 0.09 in2.3 mm
07:45 AM 52.8°F11.6°C 50.3°F10.2°C 91% 3.0 mph NE4.8 kmh NE 7.0 mph11.3 kmh 30.21 in1023.0 mb 0.09 in2.3 mm 0.00 in0.0 mm 0.09 in2.3 mm
08:00 AM 53.0°F11.7°C 50.2°F10.1°C 90% 1.0 mph ENE1.6 kmh ENE 8.0 mph12.9 kmh 30.22 in1023.4 mb 0.06 in1.5 mm 0.00 in0.0 mm 0.09 in2.3 mm
08:15 AM 53.1°F11.7°C 50.0°F10.0°C 89% 5.0 mph E8.0 kmh E 8.0 mph12.9 kmh 30.22 in1023.4 mb 0.06 in1.5 mm 0.00 in0.0 mm 0.09 in2.3 mm
08:30 AM 53.6°F12.0°C 50.1°F10.1°C 88% 5.0 mph E8.0 kmh E 8.0 mph12.9 kmh 30.22 in1023.4 mb 0.06 in1.5 mm 0.00 in0.0 mm 0.09 in2.3 mm
08:45 AM 53.9°F12.2°C 50.1°F10.1°C 87% 2.0 mph SE3.2 kmh SE 10.0 mph16.1 kmh 30.22 in1023.4 mb 0.01 in0.3 mm 0.00 in0.0 mm 0.09 in2.3 mm
09:01 AM 54.0°F12.2°C 50.2°F10.1°C 87% 2.0 mph NE3.2 kmh NE 10.0 mph16.1 kmh 30.23 in1023.7 mb 0.01 in0.3 mm 0.00 in0.0 mm 0.09 in2.3 mm
09:15 AM 54.2°F12.3°C 49.8°F9.9°C 85% 4.0 mph NE6.4 kmh NE 9.0 mph14.5 kmh 30.23 in1023.7 mb 0.01 in0.3 mm 0.00 in0.0 mm 0.09 in2.3 mm
09:30 AM 54.4°F12.4°C 49.4°F9.7°C 83% 5.0 mph ENE8.0 kmh ENE 11.0 mph17.7 kmh 30.23 in1023.7 mb 0.01 in0.3 mm 0.00 in0.0 mm 0.09 in2.3 mm
09:45 AM 54.6°F12.6°C 48.9°F9.4°C 81% 4.0 mph NE6.4 kmh NE 11.0 mph17.7 kmh 30.23 in1023.7 mb 0.01 in0.3 mm 0.00 in0.0 mm 0.09 in2.3 mm
10:00 AM 54.6°F12.6°C 47.9°F8.8°C 78% 2.0 mph NE3.2 kmh NE 15.0 mph24.1 kmh 30.23 in1023.7 mb 0.00 in0.0 mm 0.00 in0.0 mm 0.09 in2.3 mm
10:15 AM 54.4°F12.4°C 48.7°F9.3°C 81% 3.0 mph NE4.8 kmh NE 9.0 mph14.5 kmh 30.23 in1023.7 mb 0.00 in0.0 mm 0.00 in0.0 mm 0.09 in2.3 mm
10:30 AM 54.2°F12.3°C 48.5°F9.2°C 81% 1.0 mph ENE1.6 kmh ENE 9.0 mph14.5 kmh 30.23 in1023.7 mb 0.00 in0.0 mm 0.00 in0.0 mm 0.09 in2.3 mm
10:45 AM 54.2°F12.3°C 49.2°F9.6°C 83% 5.0 mph E8.0 kmh E 11.0 mph17.7 kmh 30.23 in1023.7 mb 0.00 in0.0 mm 0.00 in0.0 mm 0.09 in2.3 mm
11:00 AM 54.4°F12.4°C 49.0°F9.4°C 82% Calm Calm 8.0 mph12.9 kmh 30.24 in1024.0 mb 0.00 in0.0 mm 0.00 in0.0 mm 0.09 in2.3 mm
11:15 AM 54.4°F12.4°C 47.0°F8.3°C 76% 6.0 mph E9.7 kmh E 13.0 mph20.9 kmh 30.24 in1024.0 mb 0.00 in0.0 mm 0.00 in0.0 mm 0.09 in2.3 mm
11:30 AM 54.6°F12.6°C 48.2°F9.0°C 79% 2.0 mph ENE3.2 kmh ENE 9.0 mph14.5 kmh 30.24 in1024.0 mb 0.00 in0.0 mm 0.00 in0.0 mm 0.09 in2.3 mm
11:45 AM 54.7°F12.6°C 49.0°F9.4°C 81% 4.0 mph NE6.4 kmh NE 10.0 mph16.1 kmh 30.24 in1024.0 mb 0.00 in0.0 mm 0.00 in0.0 mm 0.09 in2.3 mm
12:00 PM 54.8°F12.7°C 48.4°F9.1°C 79% 1.0 mph ENE1.6 kmh ENE 13.0 mph20.9 kmh 30.25 in1024.4 mb 0.00 in0.0 mm 0.00 in0.0 mm 0.09 in2.3 mm
12:15 PM 55.0°F12.8°C 49.3°F9.6°C 81% 10.0 mph NE16.1 kmh NE 10.0 mph16.1 kmh 30.25 in1024.4 mb 0.00 in0.0 mm 0.00 in0.0 mm 0.09 in2.3 mm
12:30 PM 55.0°F12.8°C 49.3°F9.6°C 81% 8.0 mph ENE12.9 kmh ENE 10.0 mph16.1 kmh 30.25 in1024.4 mb 0.00 in0.0 mm 0.00 in0.0 mm 0.09 in2.3 mm
12:45 PM 55.1°F12.8°C 49.7°F9.8°C 82% 2.0 mph ENE3.2 kmh ENE 10.0 mph16.1 kmh 30.25 in1024.4 mb 0.00 in0.0 mm 0.00 in0.0 mm 0.09 in2.3 mm
01:00 PM 55.4°F13.0°C 50.0°F10.0°C 82% 2.0 mph ENE3.2 kmh ENE 8.0 mph12.9 kmh 30.24 in1024.0 mb 0.00 in0.0 mm 0.00 in0.0 mm 0.09 in2.3 mm
01:15 PM 55.1°F12.8°C 50.0°F10.0°C 83% Calm Calm 8.0 mph12.9 kmh 30.24 in1024.0 mb 0.00 in0.0 mm 0.00 in0.0 mm 0.09 in2.3 mm
01:30 PM 54.9°F12.7°C 49.8°F9.9°C 83% Calm Calm 10.0 mph16.1 kmh 30.25 in1024.4 mb 0.00 in0.0 mm 0.00 in0.0 mm 0.09 in2.3 mm
01:45 PM 55.0°F12.8°C 49.6°F9.8°C 82% 4.0 mph NE6.4 kmh NE 11.0 mph17.7 kmh 30.25 in1024.4 mb 0.00 in0.0 mm 0.00 in0.0 mm 0.09 in2.3 mm
02:00 PM 55.4°F13.0°C 49.3°F9.6°C 80% 3.0 mph NE4.8 kmh NE 13.0 mph20.9 kmh 30.25 in1024.4 mb 0.00 in0.0 mm 0.00 in0.0 mm 0.09 in2.3 mm
02:15 PM 55.9°F13.3°C 49.5°F9.7°C 79% 1.0 mph NE1.6 kmh NE 7.0 mph11.3 kmh 30.25 in1024.4 mb 0.00 in0.0 mm 0.00 in0.0 mm 0.09 in2.3 mm
02:30 PM 55.9°F13.3°C 49.5°F9.7°C 79% 5.0 mph ENE8.0 kmh ENE 8.0 mph12.9 kmh 30.25 in1024.4 mb 0.00 in0.0 mm 0.00 in0.0 mm 0.09 in2.3 mm
02:45 PM 55.3°F12.9°C 49.2°F9.6°C 80% 1.0 mph ENE1.6 kmh ENE 10.0 mph16.1 kmh 30.25 in1024.4 mb 0.00 in0.0 mm 0.00 in0.0 mm 0.09 in2.3 mm
03:00 PM 55.1°F12.8°C 49.4°F9.7°C 81% 3.0 mph NE4.8 kmh NE 9.0 mph14.5 kmh 30.26 in1024.7 mb 0.00 in0.0 mm 0.00 in0.0 mm 0.09 in2.3 mm
03:15 PM 55.1°F12.8°C 49.4°F9.7°C 81% Calm Calm 5.0 mph8.0 kmh 30.26 in1024.7 mb 0.00 in0.0 mm 0.00 in0.0 mm 0.09 in2.3 mm
03:30 PM 55.2°F12.9°C 49.2°F9.6°C 80% Calm Calm 9.0 mph14.5 kmh 30.26 in1024.7 mb 0.00 in0.0 mm 0.00 in0.0 mm 0.09 in2.3 mm
03:45 PM 55.3°F12.9°C 48.9°F9.4°C 79% 2.0 mph ENE3.2 kmh ENE 9.0 mph14.5 kmh 30.26 in1024.7 mb 0.00 in0.0 mm 0.00 in0.0 mm 0.09 in2.3 mm
04:00 PM 55.1°F12.8°C 49.1°F9.5°C 80% 5.0 mph NE8.0 kmh NE 7.0 mph11.3 kmh 30.27 in1025.1 mb 0.00 in0.0 mm 0.00 in0.0 mm 0.09 in2.3 mm
04:15 PM 54.9°F12.7°C 48.9°F9.4°C 80% 8.0 mph ENE12.9 kmh ENE 9.0 mph14.5 kmh 30.27 in1025.1 mb 0.00 in0.0 mm 0.00 in0.0 mm 0.09 in2.3 mm
04:30 PM 55.3°F12.9°C 48.9°F9.4°C 79% 3.0 mph E4.8 kmh E 11.0 mph17.7 kmh 30.27 in1025.1 mb 0.00 in0.0 mm 0.00 in0.0 mm 0.09 in2.3 mm
04:45 PM 55.2°F12.9°C 48.8°F9.3°C 79% Calm Calm 7.0 mph11.3 kmh 30.27 in1025.1 mb 0.00 in0.0 mm 0.00 in0.0 mm 0.09 in2.3 mm
05:00 PM 55.3°F12.9°C 49.2°F9.6°C 80% 2.0 mph ENE3.2 kmh ENE 6.0 mph9.7 kmh 30.27 in1025.1 mb 0.00 in0.0 mm 0.00 in0.0 mm 0.09 in2.3 mm
05:15 PM 55.1°F12.8°C 48.4°F9.1°C 78% 5.0 mph ENE8.0 kmh ENE 15.0 mph24.1 kmh 30.27 in1025.1 mb 0.00 in0.0 mm 0.00 in0.0 mm 0.09 in2.3 mm
05:30 PM 54.8°F12.7°C 48.4°F9.1°C 79% 5.0 mph ENE8.0 kmh ENE 6.0 mph9.7 kmh 30.27 in1025.1 mb 0.00 in0.0 mm 0.00 in0.0 mm 0.09 in2.3 mm
05:45 PM 54.1°F12.3°C 48.1°F8.9°C 80% 1.0 mph NNE1.6 kmh NNE 7.0 mph11.3 kmh 30.27 in1025.1 mb 0.00 in0.0 mm 0.00 in0.0 mm 0.09 in2.3 mm
06:00 PM 53.1°F11.7°C 47.4°F8.6°C 81% Calm Calm 6.0 mph9.7 kmh 30.27 in1025.1 mb 0.00 in0.0 mm 0.00 in0.0 mm 0.09 in2.3 mm
06:15 PM 52.5°F11.4°C 46.9°F8.3°C 81% 2.0 mph NE3.2 kmh NE 5.0 mph8.0 kmh 30.27 in1025.1 mb 0.00 in0.0 mm 0.00 in0.0 mm 0.09 in2.3 mm
06:30 PM 52.2°F11.2°C 46.2°F7.9°C 80% Calm Calm 7.0 mph11.3 kmh 30.28 in1025.4 mb 0.00 in0.0 mm 0.00 in0.0 mm 0.09 in2.3 mm
06:45 PM 52.3°F11.3°C 46.3°F7.9°C 80% 3.0 mph NE4.8 kmh NE 6.0 mph9.7 kmh 30.28 in1025.4 mb 0.00 in0.0 mm 0.00 in0.0 mm 0.09 in2.3 mm
07:00 PM 52.4°F11.3°C 46.4°F8.0°C 80% 1.0 mph ENE1.6 kmh ENE 8.0 mph12.9 kmh 30.28 in1025.4 mb 0.00 in0.0 mm 0.00 in0.0 mm 0.09 in2.3 mm
07:15 PM 52.7°F11.5°C 46.7°F8.2°C 80% Calm Calm 7.0 mph11.3 kmh 30.28 in1025.4 mb 0.00 in0.0 mm 0.00 in0.0 mm 0.09 in2.3 mm
07:30 PM 52.7°F11.5°C 46.7°F8.2°C 80% 2.0 mph NE3.2 kmh NE 7.0 mph11.3 kmh 30.28 in1025.4 mb 0.00 in0.0 mm 0.00 in0.0 mm 0.09 in2.3 mm
07:45 PM 52.9°F11.6°C 46.9°F8.3°C 80% 1.0 mph ENE1.6 kmh ENE 5.0 mph8.0 kmh 30.29 in1025.7 mb 0.00 in0.0 mm 0.00 in0.0 mm 0.09 in2.3 mm
08:00 PM 53.1°F11.7°C 47.1°F8.4°C 80% 2.0 mph NE3.2 kmh NE 8.0 mph12.9 kmh 30.29 in1025.7 mb 0.00 in0.0 mm 0.00 in0.0 mm 0.09 in2.3 mm
08:15 PM 53.3°F11.8°C 47.3°F8.5°C 80% 9.0 mph ENE14.5 kmh ENE 9.0 mph14.5 kmh 30.29 in1025.7 mb 0.00 in0.0 mm 0.00 in0.0 mm 0.09 in2.3 mm
08:30 PM 53.7°F12.1°C 47.7°F8.7°C 80% 4.0 mph ENE6.4 kmh ENE 9.0 mph14.5 kmh 30.29 in1025.7 mb 0.00 in0.0 mm 0.00 in0.0 mm 0.09 in2.3 mm
08:45 PM 53.9°F12.2°C 47.9°F8.8°C 80% 1.0 mph E1.6 kmh E 7.0 mph11.3 kmh 30.29 in1025.7 mb 0.00 in0.0 mm 0.00 in0.0 mm 0.09 in2.3 mm
09:00 PM 54.1°F12.3°C 47.7°F8.7°C 79% 2.0 mph E3.2 kmh E 7.0 mph11.3 kmh 30.29 in1025.7 mb 0.00 in0.0 mm 0.00 in0.0 mm 0.09 in2.3 mm
09:15 PM 54.0°F12.2°C 47.3°F8.5°C 78% 3.0 mph E4.8 kmh E 8.0 mph12.9 kmh 30.30 in1026.1 mb 0.00 in0.0 mm 0.00 in0.0 mm 0.09 in2.3 mm
09:30 PM 53.5°F11.9°C 47.2°F8.4°C 79% Calm Calm 3.0 mph4.8 kmh 30.30 in1026.1 mb 0.00 in0.0 mm 0.00 in0.0 mm 0.09 in2.3 mm
09:45 PM 53.3°F11.8°C 47.3°F8.5°C 80% 6.0 mph E9.7 kmh E 6.0 mph9.7 kmh 30.29 in1025.7 mb 0.00 in0.0 mm 0.00 in0.0 mm 0.09 in2.3 mm
10:00 PM 53.1°F11.7°C 47.4°F8.6°C 81% 1.0 mph ENE1.6 kmh ENE 5.0 mph8.0 kmh 30.29 in1025.7 mb 0.00 in0.0 mm 0.00 in0.0 mm 0.09 in2.3 mm
10:15 PM 53.3°F11.8°C 47.3°F8.5°C 80% 3.0 mph ENE4.8 kmh ENE 4.0 mph6.4 kmh 30.29 in1025.7 mb 0.00 in0.0 mm 0.00 in0.0 mm 0.09 in2.3 mm
10:30 PM 53.1°F11.7°C 47.1°F8.4°C 80% 3.0 mph E4.8 kmh E 5.0 mph8.0 kmh 30.29 in1025.7 mb 0.00 in0.0 mm 0.00 in0.0 mm 0.09 in2.3 mm
10:45 PM 53.2°F11.8°C 47.2°F8.4°C 80% Calm Calm 5.0 mph8.0 kmh 30.29 in1025.7 mb 0.00 in0.0 mm 0.00 in0.0 mm 0.09 in2.3 mm
11:00 PM 53.2°F11.8°C 47.5°F8.6°C 81% Calm Calm 7.0 mph11.3 kmh 30.29 in1025.7 mb 0.00 in0.0 mm 0.00 in0.0 mm 0.09 in2.3 mm
11:15 PM 53.4°F11.9°C 47.4°F8.6°C 80% 3.0 mph E4.8 kmh E 7.0 mph11.3 kmh 30.29 in1025.7 mb 0.00 in0.0 mm 0.00 in0.0 mm 0.09 in2.3 mm
11:30 PM 53.4°F11.9°C 47.4°F8.6°C 80% 1.0 mph ENE1.6 kmh ENE 10.0 mph16.1 kmh 30.28 in1025.4 mb 0.00 in0.0 mm 0.00 in0.0 mm 0.09 in2.3 mm
11:45 PM 53.9°F12.2°C 47.6°F8.7°C 79% 4.0 mph ESE6.4 kmh ESE 9.0 mph14.5 kmh 30.28 in1025.4 mb 0.00 in0.0 mm 0.00 in0.0 mm 0.09 in2.3 mm